Barry, Illinois
Current Conditions -  °F | °C
As of 6:35 AM on Sunday 23 Nov 2014 (Local Time) from KPPQ Reporting Station
Scattered Clouds Scattered Clouds  
Wind Chill: 53°   Ceiling: Unl
Heat Index: 53°   Visibility: 10mi
Dew Point: 47°   Wind: 10mph
Humidity: 81%   Direction: 160°SSE
Pressure: 29.69"   Gusts: NA
Location:  39.69°N, 91.04°W
Report Text: KPPQ 231235Z AUTO 16009KT 10SM SCT085 12/09 A2969 RMK AO2 T01160085 PWINO
Loading
Personal Weather Stations






























Interactive Weather Map New forecast layout! Learn more

10-Day Weather Forecast

Advertisements
Track Severe Weather on mobile